Allisonia, Virginia
Current Conditions -  °F | °C
As of 11:35 AM on Thursday 23 Oct 2014 (Local Time) from KPSK Reporting Station
Overcast Overcast  
Wind Chill: 51°   Ceiling: 2600
Heat Index: 51°   Visibility: 10mi
Dew Point: 41°   Wind: 8mph
Humidity: 68%   Direction: 320°NW
Pressure: 30.16"   Gusts: NA
Location:  36.9752°N, 80.6434°W
Report Text: KPSK 231535Z AUTO 32007KT 10SM OVC026 11/05 A3016 RMK AO2 T01050048
Loading
Personal Weather Stations






























Interactive Weather Map
Tropical Storm Tracking
New forecast layout! Learn more

10-Day Weather Forecast

Advertisements
Track Severe Weather on mobile